Красная Поляна

СКИДКИ НА СМАРТФОНЫ!

Карта отелей и гостиниц, располагающихся рядом с аэропортом Красная Поляна :

Красная Поляна
Армавир
Краснодарский край 45° 2' 56.94" N, 41° 5' 40.3188" E
Код аэродрома ИКАО
ZA6G
Код аэродрома RU
ЗА6Г
Координаты
N45.04915° E041.09453°
Превышение над уровнем моря
157
Основная полоса
14L/32R
Курс магнитный
138,1/318,1
Длина основной ВПП
670
Ширина основной ВПП
30
Покрытие основной ВПП
Нетвёрдое (грунт)
Освещение ВПП
Нет
Тип: 
Аэродром
Класс аэродрома: 
Принадлежность: 
АОН
Статус: 
Действующий
Сайт: 
http://www.aviapolyana.ru/
E-mail аэродрома: 
romanr23rus@mail.ru
Страна: 
Россия
Регион: 
Краснодарский край
Город: 
Армавир
Дополнительная информация: 
Оператор: Спортивная автономная некоммерческая организация "Армавирский аэроклуб". Бывший аэропорт МВЛ-2. Нкр.=(100-300)м, грузонапряженность до 25 т. ОПРС:1120-"ХУ" (демонтирована), СРС:4070 (ликвидирована).

Скидки на навигаторы!

Найти трансфер

С помощью этой формы Вы можете найти трансфер из аэропорта Красная Поляна в город, аэропорт или вокзал:

Погода в аэропортах:

Авиационная погода в Братске

Регион: 
Погода METAR: 
UIBB 072100Z 26005MPS 240V300 8000 -SHSN BKN020CB M14/M17 Q1022 R30/820350 NOSIG RMK QFE723/0964
Время наблюдения
2022-12-07T21:00:00Z
Температура C
-14.0
Точка росы
-17.0
Направление ветра
260
Скорость ветра (узлы)
10
Метео видимость
4.97
Облачность
BKN
Нижняя граница облачности (футы)
2000
Явления погоды
-SHSN
Условия полета
MVFR
Аэропорт подробнее: 
BKN – значительная (рассеянная, разорванная) облачность;
-SHSN - слабый ливневой снег;

Авиационная погода в Куопио

Регион: 
Погода METAR: 
EFKU 072050Z AUTO 08007KT 5000 -SN FEW006 OVC030 M04/M05 Q1005
Время наблюдения
2022-12-07T20:50:00Z
Температура C
-4.0
Точка росы
-5.0
Направление ветра
80
Скорость ветра (узлы)
7
Метео видимость
3.11
Облачность
FEW
OVC
Нижняя граница облачности (футы)
600
3000
Явления погоды
-SN
Условия полета
MVFR
FEW – незначительная облачность; OVC – сплошная облачность;
-SN – слабый снег;

Авиационная погода в Усть-Каменогорске

Регион: 
Погода METAR: 
UASK 072000Z VRB01MPS 1500 R30/1500 BR PRFG BKN005 M31/M35 Q1038 NOSIG RMK QBB150 QFE752/1003
Время наблюдения
2022-12-07T20:00:00Z
Температура C
-31.0
Точка росы
-35.0
Направление ветра
0
Скорость ветра (узлы)
2
Метео видимость
0.93
Облачность
BKN
Нижняя граница облачности (футы)
500
Явления погоды
PRFG BR
Условия полета
LIFR
Аэропорт подробнее: 
BKN – значительная (рассеянная, разорванная) облачность;
PRFG - туман просвечивающий; BR – дымка (видимость от 1 до 9 км);

Авиационная погода в Мирном

Регион: 
Погода METAR: 
UERR 072100Z 01002MPS 9999 -SN NSC M19/M22 Q1001 R25/499030 NOSIG RMK QFE720/0960
Время наблюдения
2022-12-07T21:00:00Z
Температура C
-19.0
Точка росы
-22.0
Направление ветра
10
Скорость ветра (узлы)
4
Метео видимость
6.21
Облачность
CLR
Нижняя граница облачности (футы)
Явления погоды
-SN
Условия полета
VFR
Аэропорт подробнее: 
CLR — нет облаков ниже 3000 м
-SN – слабый снег;